sensor_id;sensor_type;location;lat;lon;timestamp;temperature;humidity
51815;DHT22;37874;53.158;6.766;2023-07-31T00:02:03;24.70;56.40
51815;DHT22;37874;53.158;6.766;2023-07-31T00:04:28;24.60;56.30
51815;DHT22;37874;53.158;6.766;2023-07-31T00:06:54;24.70;56.40
51815;DHT22;37874;53.158;6.766;2023-07-31T00:09:19;24.60;56.40
51815;DHT22;37874;53.158;6.766;2023-07-31T00:11:45;24.60;56.30
51815;DHT22;37874;53.158;6.766;2023-07-31T00:14:11;24.60;56.40
51815;DHT22;37874;53.158;6.766;2023-07-31T00:16:36;24.80;56.50
51815;DHT22;37874;53.158;6.766;2023-07-31T00:19:02;24.60;56.40
51815;DHT22;37874;53.158;6.766;2023-07-31T00:21:28;24.60;56.40
51815;DHT22;37874;53.158;6.766;2023-07-31T00:23:53;24.60;56.40
51815;DHT22;37874;53.158;6.766;2023-07-31T00:26:19;24.60;56.50
51815;DHT22;37874;53.158;6.766;2023-07-31T00:28:44;24.80;56.60
51815;DHT22;37874;53.158;6.766;2023-07-31T00:31:10;24.50;56.40
51815;DHT22;37874;53.158;6.766;2023-07-31T00:33:36;24.80;56.60
51815;DHT22;37874;53.158;6.766;2023-07-31T00:36:02;24.60;56.50
51815;DHT22;37874;53.158;6.766;2023-07-31T00:38:28;24.60;56.50
51815;DHT22;37874;53.158;6.766;2023-07-31T00:40:53;24.60;56.50
51815;DHT22;37874;53.158;6.766;2023-07-31T00:43:19;24.60;56.60
51815;DHT22;37874;53.158;6.766;2023-07-31T00:45:44;24.60;56.60
51815;DHT22;37874;53.158;6.766;2023-07-31T00:48:10;24.60;56.60
51815;DHT22;37874;53.158;6.766;2023-07-31T00:50:37;24.50;56.60
51815;DHT22;37874;53.158;6.766;2023-07-31T00:53:03;24.50;56.60
51815;DHT22;37874;53.158;6.766;2023-07-31T00:55:29;24.60;56.60
51815;DHT22;37874;53.158;6.766;2023-07-31T00:57:55;24.40;56.50
51815;DHT22;37874;53.158;6.766;2023-07-31T01:00:21;24.60;56.60
51815;DHT22;37874;53.158;6.766;2023-07-31T01:02:48;24.80;56.70
51815;DHT22;37874;53.158;6.766;2023-07-31T01:05:14;24.50;56.60
51815;DHT22;37874;53.158;6.766;2023-07-31T01:08:17;24.50;56.60
51815;DHT22;37874;53.158;6.766;2023-07-31T01:14:04;24.70;56.80
51815;DHT22;37874;53.158;6.766;2023-07-31T01:16:29;24.50;56.70
51815;DHT22;37874;53.158;6.766;2023-07-31T01:18:55;24.50;56.70
51815;DHT22;37874;53.158;6.766;2023-07-31T01:24:22;24.50;56.70
51815;DHT22;37874;53.158;6.766;2023-07-31T01:27:46;24.50;56.70
51815;DHT22;37874;53.158;6.766;2023-07-31T01:30:08;24.40;56.70
51815;DHT22;37874;53.158;6.766;2023-07-31T01:32:39;24.40;56.70
51815;DHT22;37874;53.158;6.766;2023-07-31T01:35:06;24.40;56.70
51815;DHT22;37874;53.158;6.766;2023-07-31T01:37:32;24.40;56.70
51815;DHT22;37874;53.158;6.766;2023-07-31T01:39:57;24.40;56.70
51815;DHT22;37874;53.158;6.766;2023-07-31T01:42:23;24.40;56.70
51815;DHT22;37874;53.158;6.766;2023-07-31T01:44:48;24.40;56.80
51815;DHT22;37874;53.158;6.766;2023-07-31T01:47:14;24.40;56.80
51815;DHT22;37874;53.158;6.766;2023-07-31T01:49:40;24.40;56.70
51815;DHT22;37874;53.158;6.766;2023-07-31T01:52:06;24.40;56.70
51815;DHT22;37874;53.158;6.766;2023-07-31T01:54:31;24.40;56.80
51815;DHT22;37874;53.158;6.766;2023-07-31T01:56:57;24.40;56.80
51815;DHT22;37874;53.158;6.766;2023-07-31T01:59:22;24.40;56.80
51815;DHT22;37874;53.158;6.766;2023-07-31T02:01:48;24.40;56.80
51815;DHT22;37874;53.158;6.766;2023-07-31T02:04:14;24.40;56.90
51815;DHT22;37874;53.158;6.766;2023-07-31T02:06:39;24.50;56.90
51815;DHT22;37874;53.158;6.766;2023-07-31T02:09:05;24.40;56.90
51815;DHT22;37874;53.158;6.766;2023-07-31T02:11:30;24.40;56.90
51815;DHT22;37874;53.158;6.766;2023-07-31T02:13:56;24.30;56.90
51815;DHT22;37874;53.158;6.766;2023-07-31T02:16:22;24.30;56.90
51815;DHT22;37874;53.158;6.766;2023-07-31T02:18:47;24.30;56.90
51815;DHT22;37874;53.158;6.766;2023-07-31T02:21:13;24.40;57.00
51815;DHT22;37874;53.158;6.766;2023-07-31T02:23:38;24.50;57.10
51815;DHT22;37874;53.158;6.766;2023-07-31T02:26:04;24.40;57.00
51815;DHT22;37874;53.158;6.766;2023-07-31T02:28:30;24.30;56.90
51815;DHT22;37874;53.158;6.766;2023-07-31T02:30:55;24.30;56.90
51815;DHT22;37874;53.158;6.766;2023-07-31T02:33:21;24.30;56.90
51815;DHT22;37874;53.158;6.766;2023-07-31T02:35:47;24.30;56.90
51815;DHT22;37874;53.158;6.766;2023-07-31T02:38:12;24.30;56.90
51815;DHT22;37874;53.158;6.766;2023-07-31T02:40:39;24.50;57.10
51815;DHT22;37874;53.158;6.766;2023-07-31T02:43:06;24.30;57.00
51815;DHT22;37874;53.158;6.766;2023-07-31T02:45:32;24.30;57.00
51815;DHT22;37874;53.158;6.766;2023-07-31T02:47:58;24.20;57.00
51815;DHT22;37874;53.158;6.766;2023-07-31T02:50:23;24.20;57.00
51815;DHT22;37874;53.158;6.766;2023-07-31T02:52:49;24.30;57.00
51815;DHT22;37874;53.158;6.766;2023-07-31T02:55:15;24.30;57.00
51815;DHT22;37874;53.158;6.766;2023-07-31T02:57:40;24.30;57.00
51815;DHT22;37874;53.158;6.766;2023-07-31T03:00:06;24.30;57.00
51815;DHT22;37874;53.158;6.766;2023-07-31T03:02:32;24.20;57.00
51815;DHT22;37874;53.158;6.766;2023-07-31T03:04:58;24.20;57.00
51815;DHT22;37874;53.158;6.766;2023-07-31T03:07:23;24.50;57.20
51815;DHT22;37874;53.158;6.766;2023-07-31T03:09:49;24.70;57.30
51815;DHT22;37874;53.158;6.766;2023-07-31T03:12:15;24.30;57.10
51815;DHT22;37874;53.158;6.766;2023-07-31T03:14:40;24.20;57.10
51815;DHT22;37874;53.158;6.766;2023-07-31T03:17:06;24.20;57.10
51815;DHT22;37874;53.158;6.766;2023-07-31T03:19:32;24.20;57.10
51815;DHT22;37874;53.158;6.766;2023-07-31T03:21:58;24.20;57.10
51815;DHT22;37874;53.158;6.766;2023-07-31T03:24:24;24.20;57.10
51815;DHT22;37874;53.158;6.766;2023-07-31T03:26:50;24.20;57.10
51815;DHT22;37874;53.158;6.766;2023-07-31T03:29:15;24.20;57.10
51815;DHT22;37874;53.158;6.766;2023-07-31T03:31:41;24.30;57.20
51815;DHT22;37874;53.158;6.766;2023-07-31T03:34:06;24.10;57.10
51815;DHT22;37874;53.158;6.766;2023-07-31T03:36:32;24.20;57.20
51815;DHT22;37874;53.158;6.766;2023-07-31T03:38:58;24.60;57.40
51815;DHT22;37874;53.158;6.766;2023-07-31T03:41:24;24.20;57.20
51815;DHT22;37874;53.158;6.766;2023-07-31T03:43:50;24.20;57.20
51815;DHT22;37874;53.158;6.766;2023-07-31T03:46:17;24.60;57.40
51815;DHT22;37874;53.158;6.766;2023-07-31T03:48:43;24.20;57.20
51815;DHT22;37874;53.158;6.766;2023-07-31T03:51:08;24.30;57.20
51815;DHT22;37874;53.158;6.766;2023-07-31T03:53:34;24.20;57.20
51815;DHT22;37874;53.158;6.766;2023-07-31T03:56:00;24.10;57.10
51815;DHT22;37874;53.158;6.766;2023-07-31T03:58:25;24.20;57.20
51815;DHT22;37874;53.158;6.766;2023-07-31T04:00:51;24.20;57.20
51815;DHT22;37874;53.158;6.766;2023-07-31T04:03:16;24.10;57.20
51815;DHT22;37874;53.158;6.766;2023-07-31T04:05:42;24.10;57.20
51815;DHT22;37874;53.158;6.766;2023-07-31T04:08:08;24.10;57.20
51815;DHT22;37874;53.158;6.766;2023-07-31T04:10:33;24.10;57.20
51815;DHT22;37874;53.158;6.766;2023-07-31T04:12:59;24.10;57.80
51815;DHT22;37874;53.158;6.766;2023-07-31T04:15:28;24.10;57.20
51815;DHT22;37874;53.158;6.766;2023-07-31T04:17:54;24.10;57.20
51815;DHT22;37874;53.158;6.766;2023-07-31T04:20:19;24.20;57.30
51815;DHT22;37874;53.158;6.766;2023-07-31T04:22:45;24.10;57.20
51815;DHT22;37874;53.158;6.766;2023-07-31T04:25:10;24.10;57.20
51815;DHT22;37874;53.158;6.766;2023-07-31T04:27:36;24.70;57.50
51815;DHT22;37874;53.158;6.766;2023-07-31T04:30:02;24.10;57.20
51815;DHT22;37874;53.158;6.766;2023-07-31T04:32:28;24.10;57.20
51815;DHT22;37874;53.158;6.766;2023-07-31T04:34:55;24.10;57.20
51815;DHT22;37874;53.158;6.766;2023-07-31T04:37:20;24.10;57.20
51815;DHT22;37874;53.158;6.766;2023-07-31T04:39:46;24.40;57.40
51815;DHT22;37874;53.158;6.766;2023-07-31T04:42:12;24.10;57.20
51815;DHT22;37874;53.158;6.766;2023-07-31T04:44:37;24.10;57.20
51815;DHT22;37874;53.158;6.766;2023-07-31T04:47:03;24.10;57.30
51815;DHT22;37874;53.158;6.766;2023-07-31T04:49:29;24.10;57.20
51815;DHT22;37874;53.158;6.766;2023-07-31T04:51:54;24.10;57.20
51815;DHT22;37874;53.158;6.766;2023-07-31T04:54:20;24.00;57.20
51815;DHT22;37874;53.158;6.766;2023-07-31T04:56:46;24.10;57.20
51815;DHT22;37874;53.158;6.766;2023-07-31T04:59:12;24.10;57.30
51815;DHT22;37874;53.158;6.766;2023-07-31T05:01:38;24.10;57.30
51815;DHT22;37874;53.158;6.766;2023-07-31T05:04:04;24.10;57.30
51815;DHT22;37874;53.158;6.766;2023-07-31T05:06:29;24.10;57.30
51815;DHT22;37874;53.158;6.766;2023-07-31T05:08:55;24.20;57.30
51815;DHT22;37874;53.158;6.766;2023-07-31T05:11:20;24.00;57.20
51815;DHT22;37874;53.158;6.766;2023-07-31T05:13:46;24.10;57.30
51815;DHT22;37874;53.158;6.766;2023-07-31T05:16:11;24.50;57.50
51815;DHT22;37874;53.158;6.766;2023-07-31T05:18:37;24.20;57.30
51815;DHT22;37874;53.158;6.766;2023-07-31T05:21:03;24.10;57.30
51815;DHT22;37874;53.158;6.766;2023-07-31T05:23:28;24.10;57.20
51815;DHT22;37874;53.158;6.766;2023-07-31T05:25:54;24.00;57.20
51815;DHT22;37874;53.158;6.766;2023-07-31T05:28:21;24.20;57.30
51815;DHT22;37874;53.158;6.766;2023-07-31T05:30:47;24.10;57.20
51815;DHT22;37874;53.158;6.766;2023-07-31T05:33:12;23.30;56.80
51815;DHT22;37874;53.158;6.766;2023-07-31T05:35:38;24.10;57.20
51815;DHT22;37874;53.158;6.766;2023-07-31T05:38:04;24.40;57.30
51815;DHT22;37874;53.158;6.766;2023-07-31T05:40:32;24.10;57.20
51815;DHT22;37874;53.158;6.766;2023-07-31T05:43:01;24.30;57.20
51815;DHT22;37874;53.158;6.766;2023-07-31T05:45:26;24.10;57.10
51815;DHT22;37874;53.158;6.766;2023-07-31T05:47:52;24.10;57.10
51815;DHT22;37874;53.158;6.766;2023-07-31T05:50:18;24.10;57.00
51815;DHT22;37874;53.158;6.766;2023-07-31T05:52:43;24.10;57.00
51815;DHT22;37874;53.158;6.766;2023-07-31T05:55:09;24.40;57.10
51815;DHT22;37874;53.158;6.766;2023-07-31T05:57:34;24.10;56.90
51815;DHT22;37874;53.158;6.766;2023-07-31T06:00:02;24.20;56.90
51815;DHT22;37874;53.158;6.766;2023-07-31T06:02:27;24.20;56.90
51815;DHT22;37874;53.158;6.766;2023-07-31T06:04:53;24.20;56.80
51815;DHT22;37874;53.158;6.766;2023-07-31T06:07:19;24.20;56.80
51815;DHT22;37874;53.158;6.766;2023-07-31T06:09:44;24.30;56.90
51815;DHT22;37874;53.158;6.766;2023-07-31T06:12:10;24.20;56.80
51815;DHT22;37874;53.158;6.766;2023-07-31T06:14:36;24.20;56.80
51815;DHT22;37874;53.158;6.766;2023-07-31T06:17:02;24.20;56.80
51815;DHT22;37874;53.158;6.766;2023-07-31T06:19:28;24.20;56.80
51815;DHT22;37874;53.158;6.766;2023-07-31T06:21:54;24.20;56.80
51815;DHT22;37874;53.158;6.766;2023-07-31T06:24:19;24.20;56.80
51815;DHT22;37874;53.158;6.766;2023-07-31T06:26:46;24.20;57.30
51815;DHT22;37874;53.158;6.766;2023-07-31T06:29:11;24.20;56.70
51815;DHT22;37874;53.158;6.766;2023-07-31T06:31:37;24.20;56.70
51815;DHT22;37874;53.158;6.766;2023-07-31T06:34:02;24.20;56.70
51815;DHT22;37874;53.158;6.766;2023-07-31T06:36:28;24.20;56.60
51815;DHT22;37874;53.158;6.766;2023-07-31T06:38:54;24.20;56.70
51815;DHT22;37874;53.158;6.766;2023-07-31T06:41:19;24.20;56.60
51815;DHT22;37874;53.158;6.766;2023-07-31T06:43:45;24.20;56.60
51815;DHT22;37874;53.158;6.766;2023-07-31T06:46:11;24.20;56.60
51815;DHT22;37874;53.158;6.766;2023-07-31T06:48:37;24.20;56.60
51815;DHT22;37874;53.158;6.766;2023-07-31T06:51:03;24.30;56.60
51815;DHT22;37874;53.158;6.766;2023-07-31T06:53:28;24.40;56.60
51815;DHT22;37874;53.158;6.766;2023-07-31T06:55:54;24.30;56.40
51815;DHT22;37874;53.158;6.766;2023-07-31T06:58:20;24.40;56.40
51815;DHT22;37874;53.158;6.766;2023-07-31T07:00:46;24.40;56.40
51815;DHT22;37874;53.158;6.766;2023-07-31T07:03:11;24.70;56.50
51815;DHT22;37874;53.158;6.766;2023-07-31T07:05:40;24.70;56.50
51815;DHT22;37874;53.158;6.766;2023-07-31T07:08:05;24.40;56.20
51815;DHT22;37874;53.158;6.766;2023-07-31T07:10:31;24.50;56.20
51815;DHT22;37874;53.158;6.766;2023-07-31T07:12:57;24.50;56.10
51815;DHT22;37874;53.158;6.766;2023-07-31T07:15:22;24.50;56.10
51815;DHT22;37874;53.158;6.766;2023-07-31T07:17:48;24.40;56.00
51815;DHT22;37874;53.158;6.766;2023-07-31T07:20:14;24.50;56.10
51815;DHT22;37874;53.158;6.766;2023-07-31T07:22:39;24.50;56.00
51815;DHT22;37874;53.158;6.766;2023-07-31T07:25:06;24.60;56.10
51815;DHT22;37874;53.158;6.766;2023-07-31T07:27:33;24.50;56.00
51815;DHT22;37874;53.158;6.766;2023-07-31T07:29:58;24.50;55.90
51815;DHT22;37874;53.158;6.766;2023-07-31T07:32:24;24.60;56.00
51815;DHT22;37874;53.158;6.766;2023-07-31T07:34:50;24.60;56.00
51815;DHT22;37874;53.158;6.766;2023-07-31T07:37:16;24.60;55.90
51815;DHT22;37874;53.158;6.766;2023-07-31T07:39:42;24.60;55.90
51815;DHT22;37874;53.158;6.766;2023-07-31T07:42:07;24.60;55.90
51815;DHT22;37874;53.158;6.766;2023-07-31T07:44:33;24.60;56.00
51815;DHT22;37874;53.158;6.766;2023-07-31T07:46:59;24.60;55.90
51815;DHT22;37874;53.158;6.766;2023-07-31T07:49:24;24.80;56.00
51815;DHT22;37874;53.158;6.766;2023-07-31T07:51:50;24.60;55.90
51815;DHT22;37874;53.158;6.766;2023-07-31T07:54:16;24.60;55.90
51815;DHT22;37874;53.158;6.766;2023-07-31T07:56:46;24.50;55.80
51815;DHT22;37874;53.158;6.766;2023-07-31T07:59:12;24.60;55.80
51815;DHT22;37874;53.158;6.766;2023-07-31T08:01:38;24.70;55.90
51815;DHT22;37874;53.158;6.766;2023-07-31T08:04:03;24.60;55.80
51815;DHT22;37874;53.158;6.766;2023-07-31T08:06:29;24.60;55.70
51815;DHT22;37874;53.158;6.766;2023-07-31T08:08:55;24.60;55.70
51815;DHT22;37874;53.158;6.766;2023-07-31T08:11:21;24.60;55.70
51815;DHT22;37874;53.158;6.766;2023-07-31T08:13:49;24.60;55.60
51815;DHT22;37874;53.158;6.766;2023-07-31T08:16:15;24.80;55.70
51815;DHT22;37874;53.158;6.766;2023-07-31T08:18:40;24.60;55.50
51815;DHT22;37874;53.158;6.766;2023-07-31T08:21:08;24.70;55.60
51815;DHT22;37874;53.158;6.766;2023-07-31T08:23:34;24.70;56.10
51815;DHT22;37874;53.158;6.766;2023-07-31T08:25:59;24.70;55.60
51815;DHT22;37874;53.158;6.766;2023-07-31T08:28:25;24.70;55.60
51815;DHT22;37874;53.158;6.766;2023-07-31T08:30:51;24.80;55.60
51815;DHT22;37874;53.158;6.766;2023-07-31T08:33:16;24.70;55.60
51815;DHT22;37874;53.158;6.766;2023-07-31T08:35:42;24.70;55.50
51815;DHT22;37874;53.158;6.766;2023-07-31T08:38:08;24.80;55.50
51815;DHT22;37874;53.158;6.766;2023-07-31T08:40:36;24.80;55.40
51815;DHT22;37874;53.158;6.766;2023-07-31T08:43:03;24.80;55.30
51815;DHT22;37874;53.158;6.766;2023-07-31T08:45:29;24.90;55.30
51815;DHT22;37874;53.158;6.766;2023-07-31T08:47:56;24.90;55.20
51815;DHT22;37874;53.158;6.766;2023-07-31T08:50:22;24.90;55.20
51815;DHT22;37874;53.158;6.766;2023-07-31T08:52:50;24.90;55.20
51815;DHT22;37874;53.158;6.766;2023-07-31T08:55:16;24.90;55.10
51815;DHT22;37874;53.158;6.766;2023-07-31T08:57:43;25.40;55.30
51815;DHT22;37874;53.158;6.766;2023-07-31T09:00:10;25.00;55.10
51815;DHT22;37874;53.158;6.766;2023-07-31T09:02:46;25.00;55.00
51815;DHT22;37874;53.158;6.766;2023-07-31T09:05:14;25.00;55.00
51815;DHT22;37874;53.158;6.766;2023-07-31T09:07:43;25.20;55.10
51815;DHT22;37874;53.158;6.766;2023-07-31T09:10:12;25.00;54.90
51815;DHT22;37874;53.158;6.766;2023-07-31T09:12:38;25.00;55.00
51815;DHT22;37874;53.158;6.766;2023-07-31T09:15:05;25.00;55.00
51815;DHT22;37874;53.158;6.766;2023-07-31T09:17:31;25.00;55.00
51815;DHT22;37874;53.158;6.766;2023-07-31T09:19:58;25.00;55.00
51815;DHT22;37874;53.158;6.766;2023-07-31T09:22:34;25.20;55.10
51815;DHT22;37874;53.158;6.766;2023-07-31T09:25:23;25.10;55.10
51815;DHT22;37874;53.158;6.766;2023-07-31T09:27:56;25.00;55.10
51815;DHT22;37874;53.158;6.766;2023-07-31T09:30:22;25.00;55.20
51815;DHT22;37874;53.158;6.766;2023-07-31T09:32:49;24.80;55.10
51815;DHT22;37874;53.158;6.766;2023-07-31T09:35:20;25.00;55.20
51815;DHT22;37874;53.158;6.766;2023-07-31T09:37:50;24.90;55.20
51815;DHT22;37874;53.158;6.766;2023-07-31T09:40:33;24.90;55.20
51815;DHT22;37874;53.158;6.766;2023-07-31T09:43:19;25.00;55.30
51815;DHT22;37874;53.158;6.766;2023-07-31T09:45:46;24.90;55.30
51815;DHT22;37874;53.158;6.766;2023-07-31T09:48:18;25.00;55.30
51815;DHT22;37874;53.158;6.766;2023-07-31T09:50:49;24.90;55.20
51815;DHT22;37874;53.158;6.766;2023-07-31T09:53:15;25.10;55.30
51815;DHT22;37874;53.158;6.766;2023-07-31T09:55:43;25.00;55.30
51815;DHT22;37874;53.158;6.766;2023-07-31T09:58:11;25.20;55.30
51815;DHT22;37874;53.158;6.766;2023-07-31T10:00:37;25.00;55.20
51815;DHT22;37874;53.158;6.766;2023-07-31T10:03:10;25.00;55.10
51815;DHT22;37874;53.158;6.766;2023-07-31T10:05:45;25.00;55.10
51815;DHT22;37874;53.158;6.766;2023-07-31T10:08:15;25.00;55.10
51815;DHT22;37874;53.158;6.766;2023-07-31T10:10:43;25.00;55.00
51815;DHT22;37874;53.158;6.766;2023-07-31T10:13:09;25.00;55.00
51815;DHT22;37874;53.158;6.766;2023-07-31T10:15:36;25.10;55.00
51815;DHT22;37874;53.158;6.766;2023-07-31T10:18:02;25.10;55.00
51815;DHT22;37874;53.158;6.766;2023-07-31T10:20:29;25.10;55.00
51815;DHT22;37874;53.158;6.766;2023-07-31T10:22:55;25.10;54.90
51815;DHT22;37874;53.158;6.766;2023-07-31T10:25:22;25.10;54.90
51815;DHT22;37874;53.158;6.766;2023-07-31T10:27:49;25.20;54.90
51815;DHT22;37874;53.158;6.766;2023-07-31T10:30:17;25.00;54.80
51815;DHT22;37874;53.158;6.766;2023-07-31T10:32:44;25.20;54.90
51815;DHT22;37874;53.158;6.766;2023-07-31T10:35:11;25.40;55.10
51815;DHT22;37874;53.158;6.766;2023-07-31T10:37:38;25.10;54.90
51815;DHT22;37874;53.158;6.766;2023-07-31T10:40:23;25.20;55.00
51815;DHT22;37874;53.158;6.766;2023-07-31T10:42:51;25.20;55.00
51815;DHT22;37874;53.158;6.766;2023-07-31T10:45:37;25.20;55.00
51815;DHT22;37874;53.158;6.766;2023-07-31T10:48:06;25.20;55.10
51815;DHT22;37874;53.158;6.766;2023-07-31T10:50:54;25.20;55.10
51815;DHT22;37874;53.158;6.766;2023-07-31T10:53:29;25.00;55.00
51815;DHT22;37874;53.158;6.766;2023-07-31T10:56:05;25.10;55.20
51815;DHT22;37874;53.158;6.766;2023-07-31T10:58:32;25.10;55.30
51815;DHT22;37874;53.158;6.766;2023-07-31T11:00:59;25.10;55.30
51815;DHT22;37874;53.158;6.766;2023-07-31T11:03:29;25.10;55.30
51815;DHT22;37874;53.158;6.766;2023-07-31T11:06:05;25.10;55.30
51815;DHT22;37874;53.158;6.766;2023-07-31T11:08:35;25.10;55.50
51815;DHT22;37874;53.158;6.766;2023-07-31T11:13:27;25.30;55.60
51815;DHT22;37874;53.158;6.766;2023-07-31T11:15:53;25.10;55.40
51815;DHT22;37874;53.158;6.766;2023-07-31T11:18:19;25.20;55.30
51815;DHT22;37874;53.158;6.766;2023-07-31T11:20:47;25.20;55.30
51815;DHT22;37874;53.158;6.766;2023-07-31T11:23:16;25.20;55.30
51815;DHT22;37874;53.158;6.766;2023-07-31T11:25:43;25.20;55.30
51815;DHT22;37874;53.158;6.766;2023-07-31T11:28:10;25.20;55.50
51815;DHT22;37874;53.158;6.766;2023-07-31T11:30:37;25.20;55.50
51815;DHT22;37874;53.158;6.766;2023-07-31T11:33:04;25.20;55.50
51815;DHT22;37874;53.158;6.766;2023-07-31T11:35:34;25.20;55.50
51815;DHT22;37874;53.158;6.766;2023-07-31T11:38:00;25.10;55.50
51815;DHT22;37874;53.158;6.766;2023-07-31T11:40:27;25.20;55.60
51815;DHT22;37874;53.158;6.766;2023-07-31T11:43:04;25.20;55.50
51815;DHT22;37874;53.158;6.766;2023-07-31T11:45:30;25.20;55.60
51815;DHT22;37874;53.158;6.766;2023-07-31T11:47:56;25.30;55.50
51815;DHT22;37874;53.158;6.766;2023-07-31T11:50:26;25.20;55.40
51815;DHT22;37874;53.158;6.766;2023-07-31T11:52:55;25.30;55.50
51815;DHT22;37874;53.158;6.766;2023-07-31T11:55:23;25.40;55.40
51815;DHT22;37874;53.158;6.766;2023-07-31T11:57:49;25.30;55.30
51815;DHT22;37874;53.158;6.766;2023-07-31T12:00:15;25.30;55.30
51815;DHT22;37874;53.158;6.766;2023-07-31T12:02:42;25.30;55.30
51815;DHT22;37874;53.158;6.766;2023-07-31T12:05:12;25.30;55.40
51815;DHT22;37874;53.158;6.766;2023-07-31T12:07:49;25.30;55.30
51815;DHT22;37874;53.158;6.766;2023-07-31T12:10:29;25.30;55.30
51815;DHT22;37874;53.158;6.766;2023-07-31T12:13:07;25.30;55.40
51815;DHT22;37874;53.158;6.766;2023-07-31T12:15:38;25.40;55.40
51815;DHT22;37874;53.158;6.766;2023-07-31T12:18:13;25.40;55.40
51815;DHT22;37874;53.158;6.766;2023-07-31T12:23:13;25.40;55.40
51815;DHT22;37874;53.158;6.766;2023-07-31T12:25:39;25.40;55.50
51815;DHT22;37874;53.158;6.766;2023-07-31T12:28:05;25.40;55.70
51815;DHT22;37874;53.158;6.766;2023-07-31T12:30:34;25.30;55.70
51815;DHT22;37874;53.158;6.766;2023-07-31T12:33:12;25.30;55.80
51815;DHT22;37874;53.158;6.766;2023-07-31T12:35:41;25.20;55.80
51815;DHT22;37874;53.158;6.766;2023-07-31T12:38:07;25.40;55.90
51815;DHT22;37874;53.158;6.766;2023-07-31T12:40:32;25.40;55.80
51815;DHT22;37874;53.158;6.766;2023-07-31T12:43:01;25.30;55.70
51815;DHT22;37874;53.158;6.766;2023-07-31T12:45:28;25.40;55.80
51815;DHT22;37874;53.158;6.766;2023-07-31T12:47:53;25.40;55.90
51815;DHT22;37874;53.158;6.766;2023-07-31T12:50:19;25.40;56.50
51815;DHT22;37874;53.158;6.766;2023-07-31T12:52:44;25.40;56.00
51815;DHT22;37874;53.158;6.766;2023-07-31T12:55:10;25.50;56.10
51815;DHT22;37874;53.158;6.766;2023-07-31T12:57:36;25.30;56.20
51815;DHT22;37874;53.158;6.766;2023-07-31T13:00:03;25.40;56.30
51815;DHT22;37874;53.158;6.766;2023-07-31T13:02:29;25.20;56.20
51815;DHT22;37874;53.158;6.766;2023-07-31T13:04:54;25.20;56.20
51815;DHT22;37874;53.158;6.766;2023-07-31T13:07:22;25.20;56.30
51815;DHT22;37874;53.158;6.766;2023-07-31T13:09:48;25.30;56.50
51815;DHT22;37874;53.158;6.766;2023-07-31T13:12:14;25.20;56.50
51815;DHT22;37874;53.158;6.766;2023-07-31T13:14:39;25.20;56.60
51815;DHT22;37874;53.158;6.766;2023-07-31T13:17:05;25.70;57.00
51815;DHT22;37874;53.158;6.766;2023-07-31T13:19:31;25.10;56.70
51815;DHT22;37874;53.158;6.766;2023-07-31T13:21:57;25.10;56.70
51815;DHT22;37874;53.158;6.766;2023-07-31T13:24:22;25.10;56.80
51815;DHT22;37874;53.158;6.766;2023-07-31T13:26:48;25.10;56.80
51815;DHT22;37874;53.158;6.766;2023-07-31T13:29:14;25.10;56.70
51815;DHT22;37874;53.158;6.766;2023-07-31T13:31:39;25.10;57.30
51815;DHT22;37874;53.158;6.766;2023-07-31T13:34:05;25.60;57.00
51815;DHT22;37874;53.158;6.766;2023-07-31T13:36:30;25.40;56.90
51815;DHT22;37874;53.158;6.766;2023-07-31T13:38:56;25.20;56.70
51815;DHT22;37874;53.158;6.766;2023-07-31T13:41:22;25.20;56.60
51815;DHT22;37874;53.158;6.766;2023-07-31T13:43:47;25.20;56.50
51815;DHT22;37874;53.158;6.766;2023-07-31T13:46:13;25.30;56.40
51815;DHT22;37874;53.158;6.766;2023-07-31T13:48:38;25.30;56.30
51815;DHT22;37874;53.158;6.766;2023-07-31T13:51:04;25.40;56.30
51815;DHT22;37874;53.158;6.766;2023-07-31T13:53:30;25.40;56.20
51815;DHT22;37874;53.158;6.766;2023-07-31T13:55:55;26.00;56.70
51815;DHT22;37874;53.158;6.766;2023-07-31T13:58:21;25.40;56.30
51815;DHT22;37874;53.158;6.766;2023-07-31T14:00:47;25.40;56.40
51815;DHT22;37874;53.158;6.766;2023-07-31T14:03:12;25.30;56.40
51815;DHT22;37874;53.158;6.766;2023-07-31T14:05:38;25.30;56.50
51815;DHT22;37874;53.158;6.766;2023-07-31T14:08:05;25.30;56.50
51815;DHT22;37874;53.158;6.766;2023-07-31T14:10:31;25.30;56.60
51815;DHT22;37874;53.158;6.766;2023-07-31T14:12:56;25.30;56.60
51815;DHT22;37874;53.158;6.766;2023-07-31T14:15:22;25.60;56.70
51815;DHT22;37874;53.158;6.766;2023-07-31T14:17:48;25.30;56.30
51815;DHT22;37874;53.158;6.766;2023-07-31T14:20:13;25.30;56.30
51815;DHT22;37874;53.158;6.766;2023-07-31T14:22:39;25.40;56.50
51815;DHT22;37874;53.158;6.766;2023-07-31T14:25:05;25.30;56.30
51815;DHT22;37874;53.158;6.766;2023-07-31T14:27:30;25.30;56.40
51815;DHT22;37874;53.158;6.766;2023-07-31T14:29:56;25.30;56.40
51815;DHT22;37874;53.158;6.766;2023-07-31T14:32:22;25.30;56.50
51815;DHT22;37874;53.158;6.766;2023-07-31T14:34:51;25.30;56.60
51815;DHT22;37874;53.158;6.766;2023-07-31T14:37:17;25.30;56.60
51815;DHT22;37874;53.158;6.766;2023-07-31T14:39:42;25.30;56.70
51815;DHT22;37874;53.158;6.766;2023-07-31T14:42:09;25.30;56.80
51815;DHT22;37874;53.158;6.766;2023-07-31T14:44:34;25.30;56.80
51815;DHT22;37874;53.158;6.766;2023-07-31T14:47:00;25.50;56.90
51815;DHT22;37874;53.158;6.766;2023-07-31T14:49:26;25.40;56.80
51815;DHT22;37874;53.158;6.766;2023-07-31T14:51:54;25.50;57.00
51815;DHT22;37874;53.158;6.766;2023-07-31T14:54:19;25.30;57.00
51815;DHT22;37874;53.158;6.766;2023-07-31T14:56:45;25.30;57.00
51815;DHT22;37874;53.158;6.766;2023-07-31T14:59:10;25.30;57.10
51815;DHT22;37874;53.158;6.766;2023-07-31T15:01:37;25.40;57.20
51815;DHT22;37874;53.158;6.766;2023-07-31T15:04:03;25.20;57.10
51815;DHT22;37874;53.158;6.766;2023-07-31T15:06:28;25.30;57.20
51815;DHT22;37874;53.158;6.766;2023-07-31T15:08:54;25.30;57.10
51815;DHT22;37874;53.158;6.766;2023-07-31T15:11:20;25.30;57.00
51815;DHT22;37874;53.158;6.766;2023-07-31T15:13:45;25.30;57.10
51815;DHT22;37874;53.158;6.766;2023-07-31T15:16:11;25.30;57.10
51815;DHT22;37874;53.158;6.766;2023-07-31T15:18:36;25.30;57.10
51815;DHT22;37874;53.158;6.766;2023-07-31T15:21:02;25.40;57.20
51815;DHT22;37874;53.158;6.766;2023-07-31T15:23:29;25.20;57.00
51815;DHT22;37874;53.158;6.766;2023-07-31T15:25:55;25.20;56.90
51815;DHT22;37874;53.158;6.766;2023-07-31T15:28:21;25.20;57.00
51815;DHT22;37874;53.158;6.766;2023-07-31T15:30:47;25.20;57.00
51815;DHT22;37874;53.158;6.766;2023-07-31T15:33:13;25.20;57.00
51815;DHT22;37874;53.158;6.766;2023-07-31T15:35:38;25.30;57.10
51815;DHT22;37874;53.158;6.766;2023-07-31T15:38:04;25.20;57.10
51815;DHT22;37874;53.158;6.766;2023-07-31T15:40:30;25.20;57.10